Startpagina
METAR-TAF:

METAR-TAF

Vliegvelden :

Luchthaven Tallinn Lennart Meri

Tallinn, Estland

breedte: 59-23N, lengte: 024-35E, hoogte: 44 m

Actueel weer

Dit bericht is 19 minuten geleden gemaakt, om 19:20 UTC
Wind 11 kt uit het noordnoordwesten
Temperatuur 12°C
Vochtigheid 67%
Druk 1020 hPa
Zicht 10 km of meer
geen wolken onder 1500 m en geen cumulonimbus

METAR: EETN 191920Z 33011KT CAVOK 12/06 Q1020 NOSIG

Tijdstip: 22:39 (19:39 UTC)

Verwachting

Dit bericht is 2 uur en het 36 minuten geleden gemaakt, om 17:03 UTC
Verwachting geldig van 19 om 18 UTC tot 20 om 18 UTC
Wind 12 kt uit het westnoordwesten
Zicht 10 km of meer
Verspreide wolken op 3000 ft
Tijdelijke
van 19 om 23 UTC tot 20 om 06 UTC
Wind 2 kt uit variabele richting
Kans 40% :
Tijdelijke
van 20 om 01 UTC tot 20 om 04 UTC
Zicht: 3000 m
Ondiepe mist

TAF: EETN 191703Z 1918/2018 29012KT 9999 SCT030 TEMPO 1923/2006 VRB02KT PROB40 TEMPO 2001/2004 3000 MIFG

Waarnemingen en weersverwachtingen van meer dan 4000 vliegvelden (METAR en TAF).

De beschikbare stations zijn de gele en rode punten op de kaart.

Ga met uw muis naar het station om de naam te zien.

Klik dan om waarnemingen en weersverwachtingen te zien.

kaart wijzigen: klik op de groene knoppen met een zwart kruis om in te zoomen, op de groene knop met een streepje om uit te zoomen of op de groene pijlen voor aangrenzende kaarten.


METAR-TAF: